Terminal Aerodrome Forecast
Issued by NWS

Home | Current Version | Previous Version | Graphics & Text | Print | Product List | Glossary On
Versions: 1 2 3 4 5 6 7 8 9 10 11 12 13 14 15 16 17 18
000
FTUS43 KABR 252100 AAB
TAFATY
TAF AMD
KATY 252149Z 2522/2618 36016KT P6SM BKN012 OVC090
     FM252300 35017G26KT P6SM SCT035 SCT080
     FM260400 34012KT P6SM SKC=

USA.gov is the U.S. government's official web portal to all federal, state and local government web resources and services.